sensor_id;sensor_type;location;lat;lon;timestamp;P1;durP1;ratioP1;P2;durP2;ratioP2
39956;SDS011;48483;44.640;7.494;2023-02-28T00:00:09;8.68;;;5.72;;
39956;SDS011;48483;44.640;7.494;2023-02-28T00:02:39;9.52;;;5.88;;
39956;SDS011;48483;44.640;7.494;2023-02-28T00:05:08;8.00;;;5.88;;
39956;SDS011;48483;44.640;7.494;2023-02-28T00:07:36;6.68;;;5.40;;
39956;SDS011;48483;44.640;7.494;2023-02-28T00:10:04;6.00;;;4.75;;
39956;SDS011;48483;44.640;7.494;2023-02-28T00:12:33;7.07;;;5.00;;
39956;SDS011;48483;44.640;7.494;2023-02-28T00:15:02;8.55;;;5.95;;
39956;SDS011;48483;44.640;7.494;2023-02-28T00:17:32;8.30;;;6.70;;
39956;SDS011;48483;44.640;7.494;2023-02-28T00:19:59;13.35;;;6.45;;
39956;SDS011;48483;44.640;7.494;2023-02-28T00:22:31;9.90;;;6.93;;
39956;SDS011;48483;44.640;7.494;2023-02-28T00:25:00;8.77;;;6.63;;
39956;SDS011;48483;44.640;7.494;2023-02-28T00:27:26;9.60;;;6.85;;
39956;SDS011;48483;44.640;7.494;2023-02-28T00:29:53;10.35;;;7.30;;
39956;SDS011;48483;44.640;7.494;2023-02-28T00:32:19;9.57;;;6.95;;
39956;SDS011;48483;44.640;7.494;2023-02-28T00:34:47;7.45;;;6.15;;
39956;SDS011;48483;44.640;7.494;2023-02-28T00:37:14;8.07;;;5.72;;
39956;SDS011;48483;44.640;7.494;2023-02-28T00:39:41;7.90;;;5.15;;
39956;SDS011;48483;44.640;7.494;2023-02-28T00:42:08;10.82;;;5.80;;
39956;SDS011;48483;44.640;7.494;2023-02-28T00:44:34;10.75;;;5.72;;
39956;SDS011;48483;44.640;7.494;2023-02-28T00:47:01;9.38;;;6.75;;
39956;SDS011;48483;44.640;7.494;2023-02-28T00:49:27;10.18;;;6.43;;
39956;SDS011;48483;44.640;7.494;2023-02-28T00:51:55;9.52;;;5.63;;
39956;SDS011;48483;44.640;7.494;2023-02-28T00:54:22;7.43;;;5.00;;
39956;SDS011;48483;44.640;7.494;2023-02-28T00:56:49;7.50;;;5.55;;
39956;SDS011;48483;44.640;7.494;2023-02-28T00:59:16;9.95;;;5.45;;
39956;SDS011;48483;44.640;7.494;2023-02-28T01:01:44;8.23;;;5.53;;
39956;SDS011;48483;44.640;7.494;2023-02-28T01:04:12;9.30;;;6.03;;
39956;SDS011;48483;44.640;7.494;2023-02-28T01:06:38;11.98;;;7.05;;
39956;SDS011;48483;44.640;7.494;2023-02-28T01:09:07;10.43;;;6.95;;
39956;SDS011;48483;44.640;7.494;2023-02-28T01:11:34;11.88;;;7.78;;
39956;SDS011;48483;44.640;7.494;2023-02-28T01:14:01;11.07;;;7.78;;
39956;SDS011;48483;44.640;7.494;2023-02-28T01:16:28;10.77;;;6.88;;
39956;SDS011;48483;44.640;7.494;2023-02-28T01:18:54;10.15;;;6.97;;
39956;SDS011;48483;44.640;7.494;2023-02-28T01:21:21;11.75;;;7.00;;
39956;SDS011;48483;44.640;7.494;2023-02-28T01:23:48;9.27;;;6.70;;
39956;SDS011;48483;44.640;7.494;2023-02-28T01:26:17;9.23;;;6.50;;
39956;SDS011;48483;44.640;7.494;2023-02-28T01:28:45;9.35;;;6.20;;
39956;SDS011;48483;44.640;7.494;2023-02-28T01:31:13;9.48;;;6.25;;
39956;SDS011;48483;44.640;7.494;2023-02-28T01:33:40;11.27;;;7.20;;
39956;SDS011;48483;44.640;7.494;2023-02-28T01:36:07;12.98;;;6.20;;
39956;SDS011;48483;44.640;7.494;2023-02-28T01:38:36;8.88;;;6.30;;
39956;SDS011;48483;44.640;7.494;2023-02-28T01:41:03;9.52;;;6.43;;
39956;SDS011;48483;44.640;7.494;2023-02-28T01:43:32;8.13;;;6.18;;
39956;SDS011;48483;44.640;7.494;2023-02-28T01:46:17;7.50;;;5.63;;
39956;SDS011;48483;44.640;7.494;2023-02-28T01:48:44;11.00;;;6.90;;
39956;SDS011;48483;44.640;7.494;2023-02-28T01:51:16;10.40;;;6.32;;
39956;SDS011;48483;44.640;7.494;2023-02-28T01:53:47;7.55;;;5.70;;
39956;SDS011;48483;44.640;7.494;2023-02-28T01:56:17;9.05;;;6.40;;
39956;SDS011;48483;44.640;7.494;2023-02-28T01:58:50;9.73;;;6.10;;
39956;SDS011;48483;44.640;7.494;2023-02-28T02:01:36;10.30;;;6.47;;
39956;SDS011;48483;44.640;7.494;2023-02-28T02:04:03;9.80;;;6.25;;
39956;SDS011;48483;44.640;7.494;2023-02-28T02:06:30;10.85;;;6.82;;
39956;SDS011;48483;44.640;7.494;2023-02-28T02:09:01;9.35;;;6.05;;
39956;SDS011;48483;44.640;7.494;2023-02-28T02:11:28;7.80;;;5.90;;
39956;SDS011;48483;44.640;7.494;2023-02-28T02:14:02;8.35;;;5.80;;
39956;SDS011;48483;44.640;7.494;2023-02-28T02:16:43;8.77;;;5.82;;
39956;SDS011;48483;44.640;7.494;2023-02-28T02:19:26;7.95;;;5.45;;
39956;SDS011;48483;44.640;7.494;2023-02-28T02:22:21;8.68;;;6.32;;
39956;SDS011;48483;44.640;7.494;2023-02-28T02:25:11;10.52;;;5.65;;
39956;SDS011;48483;44.640;7.494;2023-02-28T02:30:52;9.43;;;6.60;;
39956;SDS011;48483;44.640;7.494;2023-02-28T02:36:37;9.50;;;6.60;;
39956;SDS011;48483;44.640;7.494;2023-02-28T02:39:09;9.68;;;6.85;;
39956;SDS011;48483;44.640;7.494;2023-02-28T02:41:41;9.63;;;6.85;;
39956;SDS011;48483;44.640;7.494;2023-02-28T02:44:15;11.25;;;5.97;;
39956;SDS011;48483;44.640;7.494;2023-02-28T02:46:47;9.35;;;6.18;;
39956;SDS011;48483;44.640;7.494;2023-02-28T02:49:16;7.88;;;5.80;;
39956;SDS011;48483;44.640;7.494;2023-02-28T02:51:49;9.48;;;5.88;;
39956;SDS011;48483;44.640;7.494;2023-02-28T02:54:19;9.30;;;5.90;;
39956;SDS011;48483;44.640;7.494;2023-02-28T02:56:49;8.32;;;5.85;;
39956;SDS011;48483;44.640;7.494;2023-02-28T02:59:18;8.85;;;6.15;;
39956;SDS011;48483;44.640;7.494;2023-02-28T03:01:48;9.98;;;6.85;;
39956;SDS011;48483;44.640;7.494;2023-02-28T03:04:18;9.07;;;6.97;;
39956;SDS011;48483;44.640;7.494;2023-02-28T03:06:46;9.38;;;6.95;;
39956;SDS011;48483;44.640;7.494;2023-02-28T03:09:15;10.20;;;6.53;;
39956;SDS011;48483;44.640;7.494;2023-02-28T03:11:42;9.63;;;6.65;;
39956;SDS011;48483;44.640;7.494;2023-02-28T03:14:22;10.63;;;7.15;;
39956;SDS011;48483;44.640;7.494;2023-02-28T03:17:14;8.05;;;6.00;;
39956;SDS011;48483;44.640;7.494;2023-02-28T03:20:05;10.70;;;6.63;;
39956;SDS011;48483;44.640;7.494;2023-02-28T03:22:49;9.32;;;6.65;;
39956;SDS011;48483;44.640;7.494;2023-02-28T03:25:24;8.52;;;6.10;;
39956;SDS011;48483;44.640;7.494;2023-02-28T03:28:02;8.45;;;5.93;;
39956;SDS011;48483;44.640;7.494;2023-02-28T03:30:36;8.10;;;6.00;;
39956;SDS011;48483;44.640;7.494;2023-02-28T03:33:08;8.10;;;5.35;;
39956;SDS011;48483;44.640;7.494;2023-02-28T03:35:39;7.88;;;5.97;;
39956;SDS011;48483;44.640;7.494;2023-02-28T03:38:12;8.75;;;5.90;;
39956;SDS011;48483;44.640;7.494;2023-02-28T03:40:46;8.27;;;5.80;;
39956;SDS011;48483;44.640;7.494;2023-02-28T03:43:18;7.47;;;5.28;;
39956;SDS011;48483;44.640;7.494;2023-02-28T03:45:48;6.72;;;5.05;;
39956;SDS011;48483;44.640;7.494;2023-02-28T03:48:17;8.90;;;5.63;;
39956;SDS011;48483;44.640;7.494;2023-02-28T03:50:48;8.63;;;5.38;;
39956;SDS011;48483;44.640;7.494;2023-02-28T03:53:22;8.18;;;5.20;;
39956;SDS011;48483;44.640;7.494;2023-02-28T03:55:54;8.05;;;4.82;;
39956;SDS011;48483;44.640;7.494;2023-02-28T04:00:54;7.30;;;5.13;;
39956;SDS011;48483;44.640;7.494;2023-02-28T04:03:25;7.47;;;5.05;;
39956;SDS011;48483;44.640;7.494;2023-02-28T04:05:52;8.15;;;5.60;;
39956;SDS011;48483;44.640;7.494;2023-02-28T04:08:22;10.05;;;5.18;;
39956;SDS011;48483;44.640;7.494;2023-02-28T04:10:50;6.72;;;4.75;;
39956;SDS011;48483;44.640;7.494;2023-02-28T04:13:22;7.63;;;5.13;;
39956;SDS011;48483;44.640;7.494;2023-02-28T04:15:48;8.45;;;6.03;;
39956;SDS011;48483;44.640;7.494;2023-02-28T04:18:15;8.13;;;4.60;;
39956;SDS011;48483;44.640;7.494;2023-02-28T04:20:41;8.07;;;4.93;;
39956;SDS011;48483;44.640;7.494;2023-02-28T04:23:08;7.72;;;5.22;;
39956;SDS011;48483;44.640;7.494;2023-02-28T04:25:36;5.78;;;4.32;;
39956;SDS011;48483;44.640;7.494;2023-02-28T04:28:02;7.68;;;5.22;;
39956;SDS011;48483;44.640;7.494;2023-02-28T04:30:29;6.93;;;4.85;;
39956;SDS011;48483;44.640;7.494;2023-02-28T04:32:58;8.13;;;5.85;;
39956;SDS011;48483;44.640;7.494;2023-02-28T04:35:26;6.40;;;5.25;;
39956;SDS011;48483;44.640;7.494;2023-02-28T04:37:53;7.95;;;5.50;;
39956;SDS011;48483;44.640;7.494;2023-02-28T04:40:19;7.85;;;6.30;;
39956;SDS011;48483;44.640;7.494;2023-02-28T04:42:47;7.65;;;5.00;;
39956;SDS011;48483;44.640;7.494;2023-02-28T04:45:14;7.88;;;5.28;;
39956;SDS011;48483;44.640;7.494;2023-02-28T04:47:40;8.23;;;5.65;;
39956;SDS011;48483;44.640;7.494;2023-02-28T04:50:07;7.15;;;5.53;;
39956;SDS011;48483;44.640;7.494;2023-02-28T04:52:35;8.40;;;5.70;;
39956;SDS011;48483;44.640;7.494;2023-02-28T04:55:01;9.82;;;6.13;;
39956;SDS011;48483;44.640;7.494;2023-02-28T04:57:28;7.53;;;5.82;;
39956;SDS011;48483;44.640;7.494;2023-02-28T04:59:57;10.88;;;6.15;;
39956;SDS011;48483;44.640;7.494;2023-02-28T05:02:23;8.15;;;6.22;;
39956;SDS011;48483;44.640;7.494;2023-02-28T05:04:50;8.20;;;6.13;;
39956;SDS011;48483;44.640;7.494;2023-02-28T05:07:16;8.02;;;6.45;;
39956;SDS011;48483;44.640;7.494;2023-02-28T05:09:43;8.73;;;6.93;;
39956;SDS011;48483;44.640;7.494;2023-02-28T05:12:09;8.57;;;6.28;;
39956;SDS011;48483;44.640;7.494;2023-02-28T05:14:36;8.77;;;7.13;;
39956;SDS011;48483;44.640;7.494;2023-02-28T05:17:04;10.20;;;6.85;;
39956;SDS011;48483;44.640;7.494;2023-02-28T05:19:31;8.90;;;6.63;;
39956;SDS011;48483;44.640;7.494;2023-02-28T05:21:57;10.98;;;7.20;;
39956;SDS011;48483;44.640;7.494;2023-02-28T05:24:24;9.27;;;7.03;;
39956;SDS011;48483;44.640;7.494;2023-02-28T05:26:51;9.77;;;7.65;;
39956;SDS011;48483;44.640;7.494;2023-02-28T05:29:18;10.45;;;7.50;;
39956;SDS011;48483;44.640;7.494;2023-02-28T05:31:45;9.48;;;6.85;;
39956;SDS011;48483;44.640;7.494;2023-02-28T05:34:13;10.68;;;7.70;;
39956;SDS011;48483;44.640;7.494;2023-02-28T05:36:41;9.70;;;7.10;;
39956;SDS011;48483;44.640;7.494;2023-02-28T05:39:08;11.75;;;7.95;;
39956;SDS011;48483;44.640;7.494;2023-02-28T05:41:39;11.73;;;8.20;;
39956;SDS011;48483;44.640;7.494;2023-02-28T05:44:06;11.88;;;9.02;;
39956;SDS011;48483;44.640;7.494;2023-02-28T05:46:33;13.18;;;8.80;;
39956;SDS011;48483;44.640;7.494;2023-02-28T05:48:59;10.38;;;7.78;;
39956;SDS011;48483;44.640;7.494;2023-02-28T05:51:27;10.45;;;7.97;;
39956;SDS011;48483;44.640;7.494;2023-02-28T05:53:54;10.88;;;8.38;;
39956;SDS011;48483;44.640;7.494;2023-02-28T05:56:24;15.35;;;8.00;;
39956;SDS011;48483;44.640;7.494;2023-02-28T05:58:51;10.10;;;7.22;;
39956;SDS011;48483;44.640;7.494;2023-02-28T06:01:22;12.18;;;7.53;;
39956;SDS011;48483;44.640;7.494;2023-02-28T06:03:51;10.32;;;6.38;;
39956;SDS011;48483;44.640;7.494;2023-02-28T06:06:18;10.57;;;6.95;;
39956;SDS011;48483;44.640;7.494;2023-02-28T06:08:45;10.70;;;7.05;;
39956;SDS011;48483;44.640;7.494;2023-02-28T06:11:12;10.50;;;7.55;;
39956;SDS011;48483;44.640;7.494;2023-02-28T06:13:39;8.10;;;6.28;;
39956;SDS011;48483;44.640;7.494;2023-02-28T06:16:06;8.65;;;6.20;;
39956;SDS011;48483;44.640;7.494;2023-02-28T06:18:33;8.57;;;6.43;;
39956;SDS011;48483;44.640;7.494;2023-02-28T06:21:00;8.02;;;5.82;;
39956;SDS011;48483;44.640;7.494;2023-02-28T06:23:26;7.85;;;5.20;;
39956;SDS011;48483;44.640;7.494;2023-02-28T06:25:54;8.57;;;5.70;;
39956;SDS011;48483;44.640;7.494;2023-02-28T06:28:24;7.22;;;5.15;;
39956;SDS011;48483;44.640;7.494;2023-02-28T06:30:51;6.68;;;5.20;;
39956;SDS011;48483;44.640;7.494;2023-02-28T06:33:18;7.25;;;5.03;;
39956;SDS011;48483;44.640;7.494;2023-02-28T06:38:12;7.50;;;5.28;;
39956;SDS011;48483;44.640;7.494;2023-02-28T06:40:39;7.53;;;4.78;;
39956;SDS011;48483;44.640;7.494;2023-02-28T06:43:07;7.40;;;5.47;;
39956;SDS011;48483;44.640;7.494;2023-02-28T06:45:34;8.25;;;5.35;;
39956;SDS011;48483;44.640;7.494;2023-02-28T06:48:00;8.88;;;6.47;;
39956;SDS011;48483;44.640;7.494;2023-02-28T06:50:27;9.07;;;5.70;;
39956;SDS011;48483;44.640;7.494;2023-02-28T06:52:55;9.70;;;5.80;;
39956;SDS011;48483;44.640;7.494;2023-02-28T06:55:21;8.25;;;6.25;;
39956;SDS011;48483;44.640;7.494;2023-02-28T06:57:48;7.90;;;6.05;;
39956;SDS011;48483;44.640;7.494;2023-02-28T07:00:18;8.70;;;6.90;;
39956;SDS011;48483;44.640;7.494;2023-02-28T07:02:45;10.02;;;6.85;;
39956;SDS011;48483;44.640;7.494;2023-02-28T07:05:12;10.57;;;6.28;;
39956;SDS011;48483;44.640;7.494;2023-02-28T07:07:39;8.05;;;5.95;;
39956;SDS011;48483;44.640;7.494;2023-02-28T07:10:09;10.98;;;6.05;;
39956;SDS011;48483;44.640;7.494;2023-02-28T07:12:37;8.10;;;5.35;;
39956;SDS011;48483;44.640;7.494;2023-02-28T07:15:04;10.57;;;6.70;;
39956;SDS011;48483;44.640;7.494;2023-02-28T07:17:33;12.25;;;6.80;;
39956;SDS011;48483;44.640;7.494;2023-02-28T07:19:59;13.85;;;8.23;;
39956;SDS011;48483;44.640;7.494;2023-02-28T07:22:26;14.25;;;8.25;;
39956;SDS011;48483;44.640;7.494;2023-02-28T07:24:54;15.18;;;8.40;;
39956;SDS011;48483;44.640;7.494;2023-02-28T07:27:20;12.35;;;7.93;;
39956;SDS011;48483;44.640;7.494;2023-02-28T07:32:17;8.35;;;5.85;;
39956;SDS011;48483;44.640;7.494;2023-02-28T07:34:45;10.93;;;7.22;;
39956;SDS011;48483;44.640;7.494;2023-02-28T07:37:12;10.57;;;7.60;;
39956;SDS011;48483;44.640;7.494;2023-02-28T07:39:39;8.98;;;6.65;;
39956;SDS011;48483;44.640;7.494;2023-02-28T07:42:07;9.93;;;6.32;;
39956;SDS011;48483;44.640;7.494;2023-02-28T07:44:38;10.85;;;6.90;;
39956;SDS011;48483;44.640;7.494;2023-02-28T07:47:06;9.57;;;6.35;;
39956;SDS011;48483;44.640;7.494;2023-02-28T07:49:34;9.48;;;6.60;;
39956;SDS011;48483;44.640;7.494;2023-02-28T07:52:02;10.20;;;6.68;;
39956;SDS011;48483;44.640;7.494;2023-02-28T07:54:29;8.85;;;6.00;;
39956;SDS011;48483;44.640;7.494;2023-02-28T07:56:55;13.25;;;8.70;;
39956;SDS011;48483;44.640;7.494;2023-02-28T07:59:22;10.75;;;7.22;;
39956;SDS011;48483;44.640;7.494;2023-02-28T08:01:49;10.20;;;7.97;;
39956;SDS011;48483;44.640;7.494;2023-02-28T08:04:17;10.77;;;8.00;;
39956;SDS011;48483;44.640;7.494;2023-02-28T08:06:44;11.05;;;7.97;;
39956;SDS011;48483;44.640;7.494;2023-02-28T08:09:12;10.30;;;7.93;;
39956;SDS011;48483;44.640;7.494;2023-02-28T08:11:38;13.18;;;10.05;;
39956;SDS011;48483;44.640;7.494;2023-02-28T08:14:05;11.85;;;9.07;;
39956;SDS011;48483;44.640;7.494;2023-02-28T08:16:31;11.00;;;8.65;;
39956;SDS011;48483;44.640;7.494;2023-02-28T08:18:58;10.98;;;8.48;;
39956;SDS011;48483;44.640;7.494;2023-02-28T08:21:24;11.55;;;8.05;;
39956;SDS011;48483;44.640;7.494;2023-02-28T08:23:51;12.88;;;9.10;;
39956;SDS011;48483;44.640;7.494;2023-02-28T08:26:19;9.55;;;7.53;;
39956;SDS011;48483;44.640;7.494;2023-02-28T08:28:46;11.40;;;8.75;;
39956;SDS011;48483;44.640;7.494;2023-02-28T08:31:13;11.55;;;8.23;;
39956;SDS011;48483;44.640;7.494;2023-02-28T08:33:41;11.73;;;8.82;;
39956;SDS011;48483;44.640;7.494;2023-02-28T08:36:10;11.38;;;8.15;;
39956;SDS011;48483;44.640;7.494;2023-02-28T08:38:37;11.15;;;8.10;;
39956;SDS011;48483;44.640;7.494;2023-02-28T08:41:05;10.38;;;8.00;;
39956;SDS011;48483;44.640;7.494;2023-02-28T08:43:34;9.90;;;7.53;;
39956;SDS011;48483;44.640;7.494;2023-02-28T08:46:01;8.68;;;7.32;;
39956;SDS011;48483;44.640;7.494;2023-02-28T08:48:29;10.27;;;7.10;;
39956;SDS011;48483;44.640;7.494;2023-02-28T08:50:57;10.90;;;8.32;;
39956;SDS011;48483;44.640;7.494;2023-02-28T08:53:25;15.70;;;11.63;;
39956;SDS011;48483;44.640;7.494;2023-02-28T08:55:55;21.98;;;15.15;;
39956;SDS011;48483;44.640;7.494;2023-02-28T08:58:23;17.77;;;12.10;;
39956;SDS011;48483;44.640;7.494;2023-02-28T09:00:51;13.05;;;10.25;;
39956;SDS011;48483;44.640;7.494;2023-02-28T09:03:18;12.18;;;9.07;;
39956;SDS011;48483;44.640;7.494;2023-02-28T09:05:51;10.52;;;7.68;;
39956;SDS011;48483;44.640;7.494;2023-02-28T09:08:19;14.05;;;9.48;;
39956;SDS011;48483;44.640;7.494;2023-02-28T09:10:45;12.18;;;8.77;;
39956;SDS011;48483;44.640;7.494;2023-02-28T09:13:12;11.43;;;7.53;;
39956;SDS011;48483;44.640;7.494;2023-02-28T09:15:39;10.50;;;7.18;;
39956;SDS011;48483;44.640;7.494;2023-02-28T09:18:07;11.15;;;7.32;;
39956;SDS011;48483;44.640;7.494;2023-02-28T09:20:33;14.52;;;9.43;;
39956;SDS011;48483;44.640;7.494;2023-02-28T09:23:02;26.15;;;13.88;;
39956;SDS011;48483;44.640;7.494;2023-02-28T09:25:29;19.85;;;11.73;;
39956;SDS011;48483;44.640;7.494;2023-02-28T09:27:55;10.32;;;7.55;;
39956;SDS011;48483;44.640;7.494;2023-02-28T09:30:22;10.77;;;7.82;;
39956;SDS011;48483;44.640;7.494;2023-02-28T09:32:48;10.50;;;7.65;;
39956;SDS011;48483;44.640;7.494;2023-02-28T09:35:19;12.93;;;6.97;;
39956;SDS011;48483;44.640;7.494;2023-02-28T09:37:47;12.63;;;8.80;;
39956;SDS011;48483;44.640;7.494;2023-02-28T09:40:13;10.95;;;8.00;;
39956;SDS011;48483;44.640;7.494;2023-02-28T09:42:46;11.25;;;7.60;;
39956;SDS011;48483;44.640;7.494;2023-02-28T09:45:18;10.80;;;7.85;;
39956;SDS011;48483;44.640;7.494;2023-02-28T09:47:50;12.20;;;7.63;;
39956;SDS011;48483;44.640;7.494;2023-02-28T09:50:23;10.07;;;7.33;;
39956;SDS011;48483;44.640;7.494;2023-02-28T09:52:58;10.02;;;7.22;;
39956;SDS011;48483;44.640;7.494;2023-02-28T09:55:28;10.43;;;7.63;;
39956;SDS011;48483;44.640;7.494;2023-02-28T09:57:59;10.10;;;7.10;;
39956;SDS011;48483;44.640;7.494;2023-02-28T10:00:28;12.75;;;8.45;;
39956;SDS011;48483;44.640;7.494;2023-02-28T10:03:04;13.65;;;9.15;;
39956;SDS011;48483;44.640;7.494;2023-02-28T10:08:11;12.25;;;7.90;;
39956;SDS011;48483;44.640;7.494;2023-02-28T10:10:41;11.65;;;8.38;;
39956;SDS011;48483;44.640;7.494;2023-02-28T10:13:14;12.77;;;8.02;;
39956;SDS011;48483;44.640;7.494;2023-02-28T10:15:45;11.30;;;8.18;;
39956;SDS011;48483;44.640;7.494;2023-02-28T10:18:16;11.57;;;8.10;;
39956;SDS011;48483;44.640;7.494;2023-02-28T10:20:49;15.30;;;8.75;;
39956;SDS011;48483;44.640;7.494;2023-02-28T10:23:20;10.95;;;8.63;;
39956;SDS011;48483;44.640;7.494;2023-02-28T10:25:50;11.00;;;8.15;;
39956;SDS011;48483;44.640;7.494;2023-02-28T10:28:20;11.65;;;8.18;;
39956;SDS011;48483;44.640;7.494;2023-02-28T10:30:48;10.63;;;8.23;;
39956;SDS011;48483;44.640;7.494;2023-02-28T10:33:20;12.88;;;8.20;;
39956;SDS011;48483;44.640;7.494;2023-02-28T10:35:50;10.93;;;7.53;;
39956;SDS011;48483;44.640;7.494;2023-02-28T10:38:19;10.40;;;8.13;;
39956;SDS011;48483;44.640;7.494;2023-02-28T10:40:47;10.95;;;7.82;;
39956;SDS011;48483;44.640;7.494;2023-02-28T10:43:21;13.25;;;8.32;;
39956;SDS011;48483;44.640;7.494;2023-02-28T10:45:53;12.27;;;8.85;;
39956;SDS011;48483;44.640;7.494;2023-02-28T10:48:26;13.88;;;9.30;;
39956;SDS011;48483;44.640;7.494;2023-02-28T10:50:57;11.90;;;8.57;;
39956;SDS011;48483;44.640;7.494;2023-02-28T10:53:28;13.10;;;9.20;;
39956;SDS011;48483;44.640;7.494;2023-02-28T10:56:02;12.95;;;8.20;;
39956;SDS011;48483;44.640;7.494;2023-02-28T10:58:31;12.27;;;7.50;;
39956;SDS011;48483;44.640;7.494;2023-02-28T11:01:12;13.82;;;9.02;;
39956;SDS011;48483;44.640;7.494;2023-02-28T11:03:41;14.40;;;9.25;;
39956;SDS011;48483;44.640;7.494;2023-02-28T11:06:12;11.05;;;8.07;;
39956;SDS011;48483;44.640;7.494;2023-02-28T11:08:45;11.43;;;9.52;;
39956;SDS011;48483;44.640;7.494;2023-02-28T11:11:13;12.88;;;8.00;;
39956;SDS011;48483;44.640;7.494;2023-02-28T11:13:42;12.27;;;8.88;;
39956;SDS011;48483;44.640;7.494;2023-02-28T11:16:12;11.90;;;9.27;;
39956;SDS011;48483;44.640;7.494;2023-02-28T11:18:41;13.68;;;9.93;;
39956;SDS011;48483;44.640;7.494;2023-02-28T11:21:16;16.02;;;9.90;;
39956;SDS011;48483;44.640;7.494;2023-02-28T11:23:47;12.32;;;8.82;;
39956;SDS011;48483;44.640;7.494;2023-02-28T11:26:16;9.65;;;7.30;;
39956;SDS011;48483;44.640;7.494;2023-02-28T11:29:03;14.30;;;9.32;;
39956;SDS011;48483;44.640;7.494;2023-02-28T11:31:41;13.35;;;9.70;;
39956;SDS011;48483;44.640;7.494;2023-02-28T11:34:23;12.95;;;9.50;;
39956;SDS011;48483;44.640;7.494;2023-02-28T11:36:53;13.90;;;9.40;;
39956;SDS011;48483;44.640;7.494;2023-02-28T11:39:22;12.95;;;9.43;;
39956;SDS011;48483;44.640;7.494;2023-02-28T11:41:54;13.40;;;9.73;;
39956;SDS011;48483;44.640;7.494;2023-02-28T11:44:45;12.55;;;8.50;;
39956;SDS011;48483;44.640;7.494;2023-02-28T11:47:25;11.43;;;8.32;;
39956;SDS011;48483;44.640;7.494;2023-02-28T11:50:03;10.95;;;8.23;;
39956;SDS011;48483;44.640;7.494;2023-02-28T11:52:40;12.48;;;8.25;;
39956;SDS011;48483;44.640;7.494;2023-02-28T11:55:16;12.82;;;9.43;;
39956;SDS011;48483;44.640;7.494;2023-02-28T11:57:56;11.48;;;8.63;;
39956;SDS011;48483;44.640;7.494;2023-02-28T12:00:38;12.73;;;9.10;;
39956;SDS011;48483;44.640;7.494;2023-02-28T12:03:13;13.52;;;9.60;;
39956;SDS011;48483;44.640;7.494;2023-02-28T12:05:49;12.07;;;8.70;;
39956;SDS011;48483;44.640;7.494;2023-02-28T12:08:30;11.65;;;9.23;;
39956;SDS011;48483;44.640;7.494;2023-02-28T12:11:11;11.13;;;8.40;;
39956;SDS011;48483;44.640;7.494;2023-02-28T12:13:46;14.05;;;8.60;;
39956;SDS011;48483;44.640;7.494;2023-02-28T12:16:28;11.50;;;9.07;;
39956;SDS011;48483;44.640;7.494;2023-02-28T12:19:09;11.35;;;8.27;;
39956;SDS011;48483;44.640;7.494;2023-02-28T12:21:48;13.18;;;9.00;;
39956;SDS011;48483;44.640;7.494;2023-02-28T12:24:40;11.82;;;8.27;;
39956;SDS011;48483;44.640;7.494;2023-02-28T12:27:27;11.52;;;8.80;;
39956;SDS011;48483;44.640;7.494;2023-02-28T12:32:27;12.82;;;9.23;;
39956;SDS011;48483;44.640;7.494;2023-02-28T12:34:59;13.73;;;9.45;;
39956;SDS011;48483;44.640;7.494;2023-02-28T12:37:31;9.85;;;7.60;;
39956;SDS011;48483;44.640;7.494;2023-02-28T12:40:06;10.63;;;8.00;;
39956;SDS011;48483;44.640;7.494;2023-02-28T12:42:39;12.00;;;9.05;;
39956;SDS011;48483;44.640;7.494;2023-02-28T12:45:12;11.00;;;7.85;;
39956;SDS011;48483;44.640;7.494;2023-02-28T12:47:44;11.30;;;8.85;;
39956;SDS011;48483;44.640;7.494;2023-02-28T12:50:15;12.50;;;8.50;;
39956;SDS011;48483;44.640;7.494;2023-02-28T12:52:46;11.13;;;8.50;;
39956;SDS011;48483;44.640;7.494;2023-02-28T12:55:19;13.63;;;9.63;;
39956;SDS011;48483;44.640;7.494;2023-02-28T12:57:55;14.85;;;9.20;;
39956;SDS011;48483;44.640;7.494;2023-02-28T13:00:28;10.77;;;8.88;;
39956;SDS011;48483;44.640;7.494;2023-02-28T13:03:04;13.88;;;9.82;;
39956;SDS011;48483;44.640;7.494;2023-02-28T13:05:55;12.02;;;8.55;;
39956;SDS011;48483;44.640;7.494;2023-02-28T13:08:49;12.07;;;9.30;;
39956;SDS011;48483;44.640;7.494;2023-02-28T13:11:30;11.68;;;8.80;;
39956;SDS011;48483;44.640;7.494;2023-02-28T13:16:26;11.23;;;8.20;;
39956;SDS011;48483;44.640;7.494;2023-02-28T13:18:52;11.82;;;8.93;;
39956;SDS011;48483;44.640;7.494;2023-02-28T13:21:41;13.57;;;9.98;;
39956;SDS011;48483;44.640;7.494;2023-02-28T13:24:10;12.80;;;8.98;;
39956;SDS011;48483;44.640;7.494;2023-02-28T13:27:22;17.85;;;9.95;;
39956;SDS011;48483;44.640;7.494;2023-02-28T13:29:57;15.15;;;10.73;;
39956;SDS011;48483;44.640;7.494;2023-02-28T13:32:28;14.13;;;10.15;;
39956;SDS011;48483;44.640;7.494;2023-02-28T13:35:12;14.48;;;10.73;;
39956;SDS011;48483;44.640;7.494;2023-02-28T13:38:17;15.75;;;10.77;;
39956;SDS011;48483;44.640;7.494;2023-02-28T13:44:11;12.90;;;9.50;;
39956;SDS011;48483;44.640;7.494;2023-02-28T13:49:43;12.50;;;10.38;;
39956;SDS011;48483;44.640;7.494;2023-02-28T13:52:12;16.23;;;10.73;;
39956;SDS011;48483;44.640;7.494;2023-02-28T13:54:56;16.55;;;10.65;;
39956;SDS011;48483;44.640;7.494;2023-02-28T13:57:39;12.95;;;10.00;;
39956;SDS011;48483;44.640;7.494;2023-02-28T14:00:19;17.48;;;11.57;;
39956;SDS011;48483;44.640;7.494;2023-02-28T14:05:44;13.50;;;9.95;;
39956;SDS011;48483;44.640;7.494;2023-02-28T14:08:12;16.05;;;10.90;;
39956;SDS011;48483;44.640;7.494;2023-02-28T14:10:44;17.02;;;11.68;;
39956;SDS011;48483;44.640;7.494;2023-02-28T14:13:14;13.77;;;8.43;;
39956;SDS011;48483;44.640;7.494;2023-02-28T14:16:13;17.33;;;11.35;;
39956;SDS011;48483;44.640;7.494;2023-02-28T14:18:42;20.15;;;13.63;;
39956;SDS011;48483;44.640;7.494;2023-02-28T14:21:19;20.08;;;13.45;;
39956;SDS011;48483;44.640;7.494;2023-02-28T14:24:01;16.35;;;12.77;;
39956;SDS011;48483;44.640;7.494;2023-02-28T14:26:57;16.30;;;12.38;;
39956;SDS011;48483;44.640;7.494;2023-02-28T14:29:51;19.58;;;12.30;;
39956;SDS011;48483;44.640;7.494;2023-02-28T14:32:40;16.67;;;12.50;;
39956;SDS011;48483;44.640;7.494;2023-02-28T14:38:07;16.95;;;12.15;;
39956;SDS011;48483;44.640;7.494;2023-02-28T14:40:42;16.02;;;13.00;;
39956;SDS011;48483;44.640;7.494;2023-02-28T14:43:18;18.85;;;12.88;;
39956;SDS011;48483;44.640;7.494;2023-02-28T14:45:49;17.77;;;13.13;;
39956;SDS011;48483;44.640;7.494;2023-02-28T14:48:19;17.92;;;13.18;;
39956;SDS011;48483;44.640;7.494;2023-02-28T14:50:48;15.48;;;12.77;;
39956;SDS011;48483;44.640;7.494;2023-02-28T14:53:17;15.70;;;12.10;;
39956;SDS011;48483;44.640;7.494;2023-02-28T14:55:46;17.98;;;12.35;;
39956;SDS011;48483;44.640;7.494;2023-02-28T14:58:20;17.75;;;13.27;;
39956;SDS011;48483;44.640;7.494;2023-02-28T15:01:09;16.95;;;12.68;;
39956;SDS011;48483;44.640;7.494;2023-02-28T15:03:38;20.27;;;12.73;;
39956;SDS011;48483;44.640;7.494;2023-02-28T15:06:12;18.63;;;13.57;;
39956;SDS011;48483;44.640;7.494;2023-02-28T15:08:39;25.33;;;14.07;;
39956;SDS011;48483;44.640;7.494;2023-02-28T15:11:07;19.90;;;13.20;;
39956;SDS011;48483;44.640;7.494;2023-02-28T15:13:39;18.48;;;13.05;;
39956;SDS011;48483;44.640;7.494;2023-02-28T15:16:08;17.55;;;13.02;;
39956;SDS011;48483;44.640;7.494;2023-02-28T15:21:11;15.13;;;12.50;;
39956;SDS011;48483;44.640;7.494;2023-02-28T15:23:39;16.52;;;12.68;;
39956;SDS011;48483;44.640;7.494;2023-02-28T15:26:09;16.80;;;13.15;;
39956;SDS011;48483;44.640;7.494;2023-02-28T15:28:39;17.13;;;13.85;;
39956;SDS011;48483;44.640;7.494;2023-02-28T15:31:23;20.52;;;13.70;;
39956;SDS011;48483;44.640;7.494;2023-02-28T15:33:55;18.90;;;14.82;;
39956;SDS011;48483;44.640;7.494;2023-02-28T15:36:24;17.73;;;13.77;;